Santiponce, Spain
Current Conditions -  °F | °C
As of 10:30 PM on Thursday 23 Oct 2014 (Local Time) from LEZL Reporting Station
Clear Clear  
Wind Chill: 66°   Ceiling: Unl
Heat Index: 66°   Visibility: 6mi
Dew Point: 52°   Wind: 5mph
Humidity: 60%   Direction: 40°NE
Pressure: 30.06"   Gusts: NA
Location:  37.44°N, 6.04°W
Report Text: LEZL 232030Z 04004KT CAVOK 19/11 Q1018 NOSIG
Loading
Personal Weather Stations






























Interactive Weather Map
Tropical Storm Tracking
New forecast layout! Learn more

10-Day Weather Forecast

Advertisements
Track Severe Weather on mobile